Time;durP1;ratioP1;P1;durP2;ratioP2;P2;SDS_P1;SDS_P2;PMS_P1;PMS_P2;Temp;Humidity;BMP_temperature;BMP_pressure;BME280_temperature;BME280_humidity;BME280_pressure;Samples;Min_cycle;Max_cycle;Signal;HPM_P1;HPM_P2
2023/04/05 00:00:19;;;;;;;14.85;9.00;;;;;;;3.02;77.10;102326.03;5042767;28;20040;-62
2023/04/05 00:02:44;;;;;;;14.93;9.03;;;;;;;2.98;77.71;102325.31;5042472;28;20033;-63
2023/04/05 00:05:10;;;;;;;15.38;9.07;;;;;;;2.92;77.64;102334.31;5044509;28;21062;-62
2023/04/05 00:07:36;;;;;;;18.48;9.90;;;;;;;2.95;77.93;102346.44;5042689;28;20045;-62
2023/04/05 00:10:01;;;;;;;17.08;9.48;;;;;;;2.99;78.10;102334.03;5044090;28;20527;-63
2023/04/05 00:12:26;;;;;;;17.23;9.13;;;;;;;2.89;78.83;102337.09;5038505;28;20064;-63
2023/04/05 00:14:52;;;;;;;17.17;8.97;;;;;;;2.88;79.40;102337.16;5042782;28;20101;-62
2023/04/05 00:17:17;;;;;;;13.40;8.00;;;;;;;2.83;79.24;102335.59;5043637;28;20128;-62
2023/04/05 00:19:43;;;;;;;14.23;8.40;;;;;;;2.71;79.24;102338.81;5043731;28;20037;-62
2023/04/05 00:22:10;;;;;;;17.10;8.60;;;;;;;2.60;79.72;102330.63;5041710;28;20116;-63
2023/04/05 00:24:37;;;;;;;15.73;8.83;;;;;;;2.48;79.73;102330.28;5042765;28;20943;-63
2023/04/05 00:27:03;;;;;;;14.47;8.20;;;;;;;2.45;80.00;102325.19;5039611;28;20060;-62
2023/04/05 00:29:28;;;;;;;18.73;8.90;;;;;;;2.41;80.20;102323.63;5042554;28;20080;-62
2023/04/05 00:31:55;;;;;;;17.10;9.13;;;;;;;2.39;80.13;102325.47;5041527;28;20043;-62
2023/04/05 00:34:20;;;;;;;14.47;9.17;;;;;;;2.34;80.32;102323.06;5041874;28;20388;-62
2023/04/05 00:36:45;;;;;;;15.77;9.27;;;;;;;2.33;80.63;102323.13;5042849;28;20041;-62
2023/04/05 00:39:11;;;;;;;17.73;8.57;;;;;;;2.34;80.52;102320.47;5043564;28;20053;-62
2023/04/05 00:41:36;;;;;;;15.20;9.10;;;;;;;2.35;81.15;102316.06;5042116;28;20128;-62
2023/04/05 00:44:04;;;;;;;18.03;9.13;;;;;;;2.32;80.54;102318.81;5043079;28;20576;-62
2023/04/05 00:46:33;;;;;;;16.67;10.00;;;;;;;2.30;80.78;102311.03;5043775;28;20029;-62
2023/04/05 00:48:59;;;;;;;19.23;9.97;;;;;;;2.35;80.34;102313.44;5043136;28;20029;-63
2023/04/05 00:51:24;;;;;;;17.03;9.50;;;;;;;2.34;80.49;102307.38;5044668;28;20095;-62
2023/04/05 00:53:51;;;;;;;15.80;9.60;;;;;;;2.16;80.93;102303.81;5039409;28;20032;-63
2023/04/05 00:56:17;;;;;;;17.87;10.23;;;;;;;2.18;81.37;102302.00;5040996;28;20044;-63
2023/04/05 00:58:42;;;;;;;16.23;9.73;;;;;;;2.16;81.39;102303.81;5043122;28;20025;-62
2023/04/05 01:01:36;;;;;;;17.73;10.33;;;;;;;2.12;81.33;102307.50;5043372;28;20102;-62
2023/04/05 01:04:04;;;;;;;19.43;10.30;;;;;;;1.92;81.34;102311.84;5037196;28;20067;-63
2023/04/05 01:06:46;;;;;;;16.93;9.80;;;;;;;1.91;81.60;102312.75;5041699;28;20749;-61
2023/04/05 01:09:31;;;;;;;18.57;9.87;;;;;;;1.95;81.69;102310.84;5042187;28;20039;-62
2023/04/05 01:12:01;;;;;;;16.40;9.43;;;;;;;1.96;81.82;102313.41;5033985;28;20041;-62
2023/04/05 01:14:27;;;;;;;21.03;10.40;;;;;;;1.97;82.36;102304.66;5042208;28;20171;-62
2023/04/05 01:16:57;;;;;;;19.40;10.60;;;;;;;1.93;81.94;102308.31;5042326;28;20111;-62
2023/04/05 01:19:27;;;;;;;16.80;9.93;;;;;;;1.80;82.05;102309.78;5041777;28;20040;-63
2023/04/05 01:22:12;;;;;;;19.17;10.93;;;;;;;1.85;82.30;102305.19;5042830;28;20060;-62
2023/04/05 01:25:05;;;;;;;19.60;10.60;;;;;;;1.87;82.10;102304.22;5041002;28;20029;-63
2023/04/05 01:27:40;;;;;;;18.05;9.93;;;;;;;1.93;82.50;102297.84;5036696;28;20039;-63
2023/04/05 01:30:16;;;;;;;18.47;10.67;;;;;;;1.78;82.33;102299.38;5041150;28;20110;-62
2023/04/05 01:33:07;;;;;;;18.47;10.27;;;;;;;1.81;82.03;102287.94;5040178;28;20065;-63
2023/04/05 01:35:58;;;;;;;18.87;10.63;;;;;;;1.77;82.29;102291.63;5040639;28;20481;-62
2023/04/05 01:38:26;;;;;;;18.10;9.90;;;;;;;1.59;82.43;102294.13;5038231;28;20042;-62
2023/04/05 01:40:53;;;;;;;18.10;10.10;;;;;;;1.60;82.53;102291.44;5045241;28;20024;-63
2023/04/05 01:43:18;;;;;;;18.63;10.40;;;;;;;1.60;81.95;102280.13;5042339;28;20096;-62
2023/04/05 01:45:45;;;;;;;18.87;10.10;;;;;;;1.58;82.22;102281.97;5045307;28;20579;-62
2023/04/05 01:48:11;;;;;;;17.27;10.03;;;;;;;1.61;81.96;102284.44;5042988;28;20074;-62
2023/04/05 01:50:36;;;;;;;19.77;10.43;;;;;;;1.56;82.51;102286.38;5045186;28;20041;-62
2023/04/05 01:53:02;;;;;;;18.40;10.23;;;;;;;1.58;82.81;102281.97;5044796;28;20040;-62
2023/04/05 01:55:27;;;;;;;18.47;10.63;;;;;;;1.52;83.17;102277.00;5041958;28;20101;-63
2023/04/05 01:57:54;;;;;;;18.13;10.20;;;;;;;1.54;83.12;102280.38;5045343;28;20032;-63
2023/04/05 02:00:20;;;;;;;18.73;10.63;;;;;;;1.47;83.22;102280.66;5040207;28;20760;-62
2023/04/05 02:02:45;;;;;;;18.20;10.60;;;;;;;1.48;82.56;102277.13;5043276;28;20165;-62
2023/04/05 02:05:11;;;;;;;18.87;10.50;;;;;;;1.48;83.33;102271.88;5045793;28;20033;-62
2023/04/05 02:07:36;;;;;;;17.20;10.33;;;;;;;1.40;83.27;102273.13;5043291;28;20036;-62
2023/04/05 02:10:02;;;;;;;16.60;10.30;;;;;;;1.39;83.10;102267.06;5040833;28;20122;-62
2023/04/05 02:12:27;;;;;;;17.70;10.90;;;;;;;1.29;83.53;102261.38;5041253;28;20210;-63
2023/04/05 02:14:52;;;;;;;17.10;10.70;;;;;;;1.23;83.55;102266.84;5046201;28;20071;-63
2023/04/05 02:17:18;;;;;;;19.00;10.37;;;;;;;1.24;83.90;102272.94;5045240;28;20029;-62
2023/04/05 02:19:45;;;;;;;20.67;10.57;;;;;;;1.14;83.71;102273.31;5045623;28;20138;-63
2023/04/05 02:22:10;;;;;;;18.30;10.57;;;;;;;1.23;83.54;102271.25;5046101;28;20033;-63
2023/04/05 02:24:36;;;;;;;20.73;11.03;;;;;;;1.24;84.30;102262.50;5046324;28;20044;-62
2023/04/05 02:27:01;;;;;;;19.30;10.80;;;;;;;1.19;84.78;102265.31;5044534;28;20021;-62
2023/04/05 02:29:26;;;;;;;17.60;10.23;;;;;;;1.18;84.14;102263.63;5037495;28;20396;-62
2023/04/05 02:31:52;;;;;;;16.27;10.17;;;;;;;1.12;84.17;102259.47;5044188;28;20056;-63
2023/04/05 02:34:17;;;;;;;18.43;10.47;;;;;;;1.16;83.69;102261.06;5045299;28;20025;-62
2023/04/05 02:36:43;;;;;;;18.27;9.97;;;;;;;1.16;83.95;102261.06;5041396;28;20036;-62
2023/04/05 02:39:08;;;;;;;20.63;10.60;;;;;;;1.13;84.23;102258.56;5044292;28;20595;-62
2023/04/05 02:41:35;;;;;;;18.00;9.87;;;;;;;1.07;84.26;102250.97;5045899;28;20485;-62
2023/04/05 02:44:00;;;;;;;19.43;10.80;;;;;;;1.04;84.64;102251.13;5043689;28;20091;-63
2023/04/05 02:46:25;;;;;;;18.13;10.17;;;;;;;1.07;84.85;102256.19;5040895;28;20528;-63
2023/04/05 02:48:51;;;;;;;19.10;10.50;;;;;;;1.06;84.62;102251.91;5038718;28;20033;-63
2023/04/05 02:51:16;;;;;;;21.13;10.47;;;;;;;1.06;85.64;102251.91;5046749;28;20041;-62
2023/04/05 02:53:43;;;;;;;17.87;10.43;;;;;;;1.05;85.24;102256.25;5045512;28;20033;-62
2023/04/05 02:56:12;;;;;;;20.33;10.80;;;;;;;1.11;85.85;102252.56;5045901;28;20051;-63
2023/04/05 02:58:38;;;;;;;18.27;10.90;;;;;;;1.04;85.67;102251.13;5037951;28;20029;-63
2023/04/05 03:01:06;;;;;;;16.87;10.20;;;;;;;0.87;85.79;102244.81;5045693;28;20033;-62
2023/04/05 03:03:35;;;;;;;16.50;10.77;;;;;;;0.88;85.49;102245.69;5033817;28;20485;-64
2023/04/05 03:06:10;;;;;;;17.77;10.53;;;;;;;0.81;85.52;102239.84;5042264;28;20040;-63
2023/04/05 03:08:43;;;;;;;18.17;10.27;;;;;;;0.85;85.44;102237.97;5043588;28;20032;-62
2023/04/05 03:11:09;;;;;;;17.83;9.88;;;;;;;0.79;84.85;102228.63;5042261;28;20087;-62
2023/04/05 03:13:35;;;;;;;15.83;9.43;;;;;;;0.71;84.60;102233.31;5043366;28;20090;-62
2023/04/05 03:16:04;;;;;;;19.20;10.23;;;;;;;0.73;84.82;102236.72;5041456;28;20037;-62
2023/04/05 03:18:29;;;;;;;17.80;10.20;;;;;;;0.75;84.80;102234.88;5042022;28;20029;-62
2023/04/05 03:20:55;;;;;;;16.60;10.00;;;;;;;0.70;84.91;102231.59;5046470;28;20036;-62
2023/04/05 03:23:25;;;;;;;17.90;10.13;;;;;;;0.68;85.00;102225.59;5042821;28;20101;-62
2023/04/05 03:25:54;;;;;;;16.50;10.00;;;;;;;0.71;85.05;102222.84;5043993;28;20143;-62
2023/04/05 03:28:19;;;;;;;17.97;10.00;;;;;;;0.63;85.65;102231.84;5044548;28;20028;-62
2023/04/05 03:30:45;;;;;;;16.83;10.30;;;;;;;0.69;85.59;102224.69;5044778;28;20051;-63
2023/04/05 03:33:10;;;;;;;18.40;10.60;;;;;;;0.59;86.23;102225.03;5043216;28;20348;-62
2023/04/05 03:35:36;;;;;;;16.77;10.10;;;;;;;0.64;86.32;102217.06;5042099;28;20492;-62
2023/04/05 03:38:01;;;;;;;19.17;10.57;;;;;;;0.65;85.76;102218.75;5041957;28;20033;-63
2023/04/05 03:40:26;;;;;;;18.27;10.17;;;;;;;0.57;85.72;102221.66;5045606;28;20043;-62
2023/04/05 03:42:51;;;;;;;18.03;10.57;;;;;;;0.59;85.87;102219.81;5044765;28;20037;-62
2023/04/05 03:45:17;;;;;;;18.60;10.00;;;;;;;0.47;84.88;102221.19;5041993;28;20090;-62
2023/04/05 03:47:43;;;;;;;17.00;10.63;;;;;;;0.47;85.52;102222.94;5043441;28;20472;-63
2023/04/05 03:50:08;;;;;;;17.93;10.70;;;;;;;0.49;85.88;102224.56;5044698;28;20128;-63
2023/04/05 03:52:34;;;;;;;19.37;10.37;;;;;;;0.48;85.65;102222.00;5040784;28;20025;-62
2023/04/05 03:55:00;;;;;;;19.63;10.57;;;;;;;0.41;85.85;102221.44;5036271;28;20074;-62
2023/04/05 03:57:29;;;;;;;18.23;10.33;;;;;;;0.43;85.99;102213.53;5042214;28;20086;-62
2023/04/05 03:59:55;;;;;;;19.80;11.17;;;;;;;0.44;85.85;102215.25;5040422;28;20029;-62
2023/04/05 04:02:21;;;;;;;19.33;11.10;;;;;;;0.39;86.29;102213.66;5035707;28;20029;-63
2023/04/05 04:04:46;;;;;;;19.27;10.53;;;;;;;0.40;86.09;102210.13;5042605;28;20029;-63
2023/04/05 04:07:13;;;;;;;19.80;11.70;;;;;;;0.31;85.97;102200.06;5041207;28;20122;-63
2023/04/05 04:09:38;;;;;;;17.63;10.93;;;;;;;0.36;86.39;102208.56;5040118;28;20077;-62
2023/04/05 04:12:04;;;;;;;21.27;10.67;;;;;;;0.42;85.95;102209.22;5041457;28;20060;-63
2023/04/05 04:14:29;;;;;;;18.13;10.83;;;;;;;0.33;85.75;102203.47;5041708;28;20509;-63
2023/04/05 04:16:55;;;;;;;22.13;11.70;;;;;;;0.27;86.24;102188.03;5039485;28;20063;-62
2023/04/05 04:19:20;;;;;;;20.47;11.90;;;;;;;0.33;85.58;102207.81;5043183;28;20029;-62
2023/04/05 04:21:50;;;;;;;20.87;11.17;;;;;;;0.24;86.03;102209.03;5043671;28;20179;-62
2023/04/05 04:24:17;;;;;;;17.90;10.93;;;;;;;0.32;85.78;102206.97;5040519;28;20045;-61
2023/04/05 04:26:43;;;;;;;19.47;11.33;;;;;;;0.28;86.13;102204.56;5040393;28;20028;-63
2023/04/05 04:29:11;;;;;;;19.10;11.37;;;;;;;0.28;86.09;102208.00;5043017;28;20056;-62
2023/04/05 04:31:40;;;;;;;19.80;11.23;;;;;;;0.22;85.92;102195.19;5042689;28;20045;-63
2023/04/05 04:34:05;;;;;;;20.87;11.80;;;;;;;0.18;85.87;102204.91;5040274;28;20032;-62
2023/04/05 04:36:35;;;;;;;18.87;11.37;;;;;;;0.20;86.09;102204.84;5037374;28;20044;-62
2023/04/05 04:39:04;;;;;;;20.33;11.67;;;;;;;0.21;85.60;102209.16;5043026;28;20400;-63
2023/04/05 04:41:32;;;;;;;19.63;11.10;;;;;;;0.19;85.73;102204.00;5045393;28;20047;-62
2023/04/05 04:44:01;;;;;;;19.40;11.30;;;;;;;0.13;85.97;102202.47;5043166;28;20048;-62
2023/04/05 04:46:29;;;;;;;18.10;11.27;;;;;;;0.10;86.00;102202.59;5040231;28;20044;-62
2023/04/05 04:48:56;;;;;;;19.60;11.50;;;;;;;0.11;86.49;102204.28;5043161;28;20029;-62
2023/04/05 04:51:21;;;;;;;20.80;11.40;;;;;;;0.13;86.16;102202.47;5043950;28;20043;-62
2023/04/05 04:53:47;;;;;;;19.73;12.10;;;;;;;0.10;86.42;102199.97;5042642;28;20029;-62
2023/04/05 04:56:12;;;;;;;18.57;11.13;;;;;;;0.13;86.01;102201.63;5042059;28;20090;-62
2023/04/05 04:58:38;;;;;;;19.83;11.90;;;;;;;0.09;85.92;102200.03;5042336;28;20671;-63
2023/04/05 05:01:08;;;;;;;23.73;12.13;;;;;;;0.07;86.41;102205.34;5043874;28;20044;-63
2023/04/05 05:03:34;;;;;;;19.77;11.73;;;;;;;0.08;86.19;102201.81;5042121;28;20595;-63
2023/04/05 05:06:01;;;;;;;21.57;12.90;;;;;;;0.08;86.08;102200.94;5041790;28;20033;-62
2023/04/05 05:08:26;;;;;;;19.90;12.33;;;;;;;0.01;86.35;102192.53;5043838;28;20029;-62
2023/04/05 05:10:52;;;;;;;23.90;12.47;;;;;;;0.06;86.39;102201.03;5040979;28;20048;-63
2023/04/05 05:13:17;;;;;;;22.67;12.77;;;;;;;0.02;86.09;102196.81;5036664;28;20064;-63
2023/04/05 05:15:43;;;;;;;21.63;12.63;;;;;;;0.05;86.29;102201.91;5045887;28;20037;-62
2023/04/05 05:18:09;;;;;;;23.77;13.37;;;;;;;0.09;86.98;102200.03;5044328;28;20055;-62
2023/04/05 05:20:34;;;;;;;23.43;12.80;;;;;;;0.15;86.99;102198.97;5047781;28;20035;-60
2023/04/05 05:23:00;;;;;;;24.73;13.03;;;;;;;0.11;86.78;102199.06;5046445;28;20112;-62
2023/04/05 05:25:26;;;;;;;21.50;12.77;;;;;;;0.09;86.78;102200.91;5044990;28;20029;-62
2023/04/05 05:27:51;;;;;;;23.10;12.53;;;;;;;0.10;86.95;102192.16;5046570;28;20039;-63
2023/04/05 05:30:17;;;;;;;22.40;13.07;;;;;;;0.04;86.83;102192.38;5046435;28;20037;-62
2023/04/05 05:32:43;;;;;;;21.37;12.57;;;;;;;0.08;87.88;102188.75;5042226;28;20037;-62
2023/04/05 05:35:08;;;;;;;20.90;12.10;;;;;;;0.12;88.00;102195.56;5047066;28;20066;-62
2023/04/05 05:37:35;;;;;;;20.87;11.83;;;;;;;0.08;87.05;102191.38;5044231;28;20033;-62
2023/04/05 05:40:01;;;;;;;23.77;12.73;;;;;;;0.04;87.10;102187.19;5042073;28;20040;-64
2023/04/05 05:42:26;;;;;;;22.53;12.27;;;;;;;0.10;88.09;102186.94;5039293;28;20037;-63
2023/04/05 05:44:52;;;;;;;22.53;12.93;;;;;;;0.18;87.82;102184.03;5041515;28;20091;-62
2023/04/05 05:47:18;;;;;;;22.33;12.93;;;;;;;0.25;87.91;102184.66;5044579;28;20059;-63
2023/04/05 05:49:43;;;;;;;22.67;12.97;;;;;;;0.32;88.00;102195.69;5042462;28;21064;-63
2023/04/05 05:52:09;;;;;;;20.33;12.20;;;;;;;0.38;87.74;102190.22;5042512;28;20098;-63
2023/04/05 05:54:34;;;;;;;20.80;12.90;;;;;;;0.37;88.03;102194.59;5035171;28;20048;-62
2023/04/05 05:57:01;;;;;;;23.47;13.70;;;;;;;0.38;87.76;102195.44;5039376;28;20032;-62
2023/04/05 05:59:26;;;;;;;19.70;12.90;;;;;;;0.46;87.85;102200.34;5036151;28;20064;-62
2023/04/05 06:01:51;;;;;;;23.47;13.37;;;;;;;0.45;87.94;102201.28;5039256;28;20115;-63
2023/04/05 06:04:17;;;;;;;23.63;13.57;;;;;;;0.46;88.28;102202.97;5038309;28;20055;-63
2023/04/05 06:06:45;;;;;;;21.20;13.83;;;;;;;0.51;88.83;102195.81;5034662;28;20036;-63
2023/04/05 06:09:10;;;;;;;23.73;14.60;;;;;;;0.58;88.29;102201.63;5035568;28;20040;-62
2023/04/05 06:11:36;;;;;;;23.13;14.17;;;;;;;0.64;88.34;102197.00;5037081;28;20044;-62
2023/04/05 06:14:01;;;;;;;25.87;14.67;;;;;;;0.71;88.53;102199.34;5039964;28;20063;-63
2023/04/05 06:16:27;;;;;;;23.03;14.57;;;;;;;0.76;86.90;102200.03;5039191;28;20060;-62
2023/04/05 06:18:55;;;;;;;25.27;15.20;;;;;;;0.80;86.64;102201.59;5037346;28;20124;-63
2023/04/05 06:21:20;;;;;;;23.83;16.03;;;;;;;0.90;85.71;102209.91;5038699;28;20029;-61
2023/04/05 06:23:46;;;;;;;28.90;16.17;;;;;;;0.99;85.87;102211.28;5039417;28;21825;-62
2023/04/05 06:26:17;;;;;;;25.67;16.33;;;;;;;1.02;85.43;102216.34;5039646;28;20060;-62
2023/04/05 06:28:42;;;;;;;24.27;16.37;;;;;;;1.09;84.41;102202.13;5039737;28;20533;-63
2023/04/05 06:31:08;;;;;;;26.03;16.53;;;;;;;1.16;83.89;102214.03;5036878;28;20033;-63
2023/04/05 06:33:33;;;;;;;23.60;16.43;;;;;;;1.23;83.25;102200.69;5039989;28;20078;-62
2023/04/05 06:35:58;;;;;;;26.83;16.43;;;;;;;1.28;82.96;102206.56;5041461;28;20567;-64
2023/04/05 06:38:24;;;;;;;25.90;16.80;;;;;;;1.33;82.57;102209.84;5040083;28;20037;-63
2023/04/05 06:40:49;;;;;;;27.03;16.53;;;;;;;1.40;82.16;102211.25;5036193;28;20032;-63
2023/04/05 06:43:14;;;;;;;28.73;16.70;;;;;;;1.45;82.46;102204.06;5034387;28;20029;-63
2023/04/05 06:45:40;;;;;;;26.93;16.70;;;;;;;1.54;82.46;102207.19;5037455;28;20049;-62
2023/04/05 06:48:05;;;;;;;26.43;16.77;;;;;;;1.56;82.99;102206.19;5040101;28;20087;-63
2023/04/05 06:50:30;;;;;;;24.17;17.27;;;;;;;1.61;82.88;102208.59;5037869;28;20037;-63
2023/04/05 06:52:56;;;;;;;25.30;16.30;;;;;;;1.65;82.58;102210.16;5038168;28;20052;-63
2023/04/05 06:55:21;;;;;;;28.13;16.77;;;;;;;1.72;81.55;102216.81;5039299;28;20601;-63
2023/04/05 06:57:46;;;;;;;23.93;16.63;;;;;;;1.75;81.91;102213.22;5036957;28;20103;-63
2023/04/05 07:00:13;;;;;;;27.27;16.53;;;;;;;1.80;82.35;102213.00;5041488;28;20679;-62
2023/04/05 07:02:39;;;;;;;25.27;15.90;;;;;;;1.89;80.36;102217.81;5036942;28;20079;-63
2023/04/05 07:05:04;;;;;;;25.13;15.70;;;;;;;1.96;80.02;102218.38;5041942;28;20449;-63
2023/04/05 07:07:37;;;;;;;25.13;15.83;;;;;;;2.00;80.30;102215.56;5042287;28;20039;-63
2023/04/05 07:10:03;;;;;;;26.17;16.17;;;;;;;2.10;80.29;102215.97;5043383;28;20322;-63
2023/04/05 07:12:29;;;;;;;25.77;15.70;;;;;;;2.18;80.18;102212.13;5041200;28;20075;-63
2023/04/05 07:14:54;;;;;;;22.97;14.67;;;;;;;2.24;79.01;102217.94;5044038;28;20040;-62
2023/04/05 07:17:19;;;;;;;23.97;14.60;;;;;;;2.33;78.26;102221.91;5044255;28;20069;-63
2023/04/05 07:19:45;;;;;;;24.47;15.30;;;;;;;2.42;78.44;102218.00;5046193;28;20028;-63
2023/04/05 07:22:10;;;;;;;24.03;14.70;;;;;;;2.50;78.63;102218.47;5044587;28;20029;-62
2023/04/05 07:24:35;;;;;;;24.23;15.07;;;;;;;2.58;78.52;102219.84;5042473;28;20048;-63
2023/04/05 07:27:01;;;;;;;25.20;14.80;;;;;;;2.66;76.92;102217.72;5043215;28;20048;-63
2023/04/05 07:29:27;;;;;;;22.93;14.03;;;;;;;2.72;76.84;102214.78;5041563;28;20028;-62
2023/04/05 07:31:52;;;;;;;22.97;14.50;;;;;;;2.82;76.16;102221.25;5045827;28;20037;-63
2023/04/05 07:34:17;;;;;;;23.33;14.07;;;;;;;2.89;74.77;102215.72;5043127;28;20090;-63
2023/04/05 07:36:43;;;;;;;24.17;14.83;;;;;;;2.96;76.46;102215.31;5035946;28;20041;-62
2023/04/05 07:39:08;;;;;;;23.23;14.50;;;;;;;3.04;75.54;102212.31;5039580;28;20033;-63
2023/04/05 07:41:37;;;;;;;21.03;14.43;;;;;;;3.17;76.97;102209.06;5039820;28;20064;-62
2023/04/05 07:44:02;;;;;;;23.33;13.50;;;;;;;3.25;74.86;102208.69;5040729;28;20035;-63
2023/04/05 07:46:28;;;;;;;19.87;13.40;;;;;;;3.33;74.21;102212.59;5036135;28;20071;-63
2023/04/05 07:48:54;;;;;;;23.37;14.17;;;;;;;3.43;75.37;102209.47;5036911;28;20029;-62
2023/04/05 07:51:19;;;;;;;22.03;13.73;;;;;;;3.49;73.08;102209.16;5035382;28;20025;-63
2023/04/05 07:53:45;;;;;;;21.47;13.10;;;;;;;3.57;72.69;102209.63;5038142;28;20827;-63
2023/04/05 07:56:13;;;;;;;23.17;13.40;;;;;;;3.70;72.48;102208.97;5040691;28;20898;-63
2023/04/05 07:58:40;;;;;;;20.17;12.60;;;;;;;3.80;71.17;102207.50;5033235;28;20021;-62
2023/04/05 08:01:06;;;;;;;19.60;12.40;;;;;;;3.87;72.30;102214.16;5038113;28;20075;-63
2023/04/05 08:03:33;;;;;;;20.57;12.50;;;;;;;3.94;70.80;102212.03;5035635;28;20403;-62
2023/04/05 08:06:08;;;;;;;21.48;11.38;;;;;;;4.06;69.97;102207.88;5037548;28;20703;-62
2023/04/05 08:08:34;;;;;;;19.55;11.70;;;;;;;4.15;70.19;102210.00;5037727;28;20194;-63
2023/04/05 08:11:04;;;;;;;19.92;11.35;;;;;;;4.24;68.64;102202.56;5042037;28;20472;-63
2023/04/05 08:13:29;;;;;;;16.98;11.13;;;;;;;4.32;66.90;102205.56;5040264;28;20037;-63
2023/04/05 08:15:56;;;;;;;16.80;10.23;;;;;;;4.36;64.14;102212.38;5043097;28;20040;-63
2023/04/05 08:18:21;;;;;;;18.48;10.40;;;;;;;4.43;65.99;102211.06;5039148;28;20037;-63
2023/04/05 08:20:53;;;;;;;15.93;9.00;;;;;;;4.55;62.38;102208.69;5044879;28;20146;-63
2023/04/05 08:23:19;;;;;;;16.45;9.68;;;;;;;4.61;63.49;102210.97;5032242;28;20489;-63
2023/04/05 08:25:44;;;;;;;17.27;9.90;;;;;;;4.70;63.21;102213.03;5042725;28;20117;-64
2023/04/05 08:28:10;;;;;;;16.70;9.80;;;;;;;4.80;64.34;102209.88;5044498;28;20028;-63
2023/04/05 08:30:35;;;;;;;18.75;10.65;;;;;;;4.87;64.22;102208.59;5044655;28;20077;-63
2023/04/05 08:33:01;;;;;;;18.77;10.02;;;;;;;4.94;62.64;102207.28;5039535;28;20031;-63
2023/04/05 08:35:26;;;;;;;17.88;9.27;;;;;;;5.00;60.96;102207.88;5044516;28;20036;-63
2023/04/05 08:37:51;;;;;;;16.55;9.18;;;;;;;5.09;59.96;102208.16;5041474;28;20029;-63
2023/04/05 08:40:17;;;;;;;19.13;10.20;;;;;;;5.13;59.94;102206.19;5043596;28;20031;-63
2023/04/05 08:42:56;;;;;;;15.57;9.68;;;;;;;5.18;60.13;102203.31;5037410;28;20032;-63
2023/04/05 08:45:24;;;;;;;17.20;9.40;;;;;;;5.23;59.45;102202.06;5041006;28;20508;-63
2023/04/05 08:47:52;;;;;;;16.67;9.60;;;;;;;5.31;57.42;102206.03;5037453;28;20063;-63
2023/04/05 08:50:17;;;;;;;16.83;8.63;;;;;;;5.36;58.69;102203.97;5041274;28;20458;-63
2023/04/05 08:52:48;;;;;;;15.63;9.60;;;;;;;5.44;58.15;102209.63;5042382;28;20033;-63
2023/04/05 08:55:14;;;;;;;20.17;9.52;;;;;;;5.47;58.83;102200.66;5043641;28;20515;-63
2023/04/05 08:57:43;;;;;;;14.25;9.05;;;;;;;5.55;59.18;102205.47;5043823;28;20021;-62
2023/04/05 09:00:10;;;;;;;17.80;9.80;;;;;;;5.63;59.55;102204.06;5040309;28;20032;-62
2023/04/05 09:02:37;;;;;;;20.67;10.52;;;;;;;5.65;58.44;102204.81;5041956;28;20079;-63
2023/04/05 09:05:07;;;;;;;16.88;10.05;;;;;;;5.72;58.64;102200.00;5040436;28;20104;-63
2023/04/05 09:07:34;;;;;;;18.40;10.50;;;;;;;5.82;58.68;102199.44;5038530;28;20514;-62
2023/04/05 09:10:01;;;;;;;18.20;10.60;;;;;;;5.89;59.44;102198.09;5042451;28;20028;-63
2023/04/05 09:12:28;;;;;;;20.67;10.70;;;;;;;5.93;59.80;102199.63;5040055;28;20040;-63
2023/04/05 09:14:54;;;;;;;19.20;11.23;;;;;;;5.96;59.61;102198.56;5043341;28;20908;-63
2023/04/05 09:17:21;;;;;;;18.25;10.40;;;;;;;6.02;59.49;102188.50;5039757;28;20435;-63
2023/04/05 09:19:49;;;;;;;20.80;10.85;;;;;;;6.07;57.55;102190.00;5043831;28;20107;-64
2023/04/05 09:22:17;;;;;;;16.77;9.82;;;;;;;6.19;56.56;102191.84;5043792;28;20045;-63
2023/04/05 09:24:43;;;;;;;18.70;9.98;;;;;;;6.26;56.72;102190.50;5040594;28;20083;-63
2023/04/05 09:27:10;;;;;;;18.20;10.73;;;;;;;6.28;54.93;102180.69;5037028;28;20059;-63
2023/04/05 09:29:38;;;;;;;17.33;9.30;;;;;;;6.36;54.48;102189.91;5041869;28;20520;-63
2023/04/05 09:32:04;;;;;;;15.80;9.75;;;;;;;6.46;54.47;102185.72;5040493;28;20092;-63
2023/04/05 09:34:37;;;;;;;19.48;10.15;;;;;;;6.50;53.74;102184.56;5040730;28;20602;-63
2023/04/05 09:37:20;;;;;;;17.63;10.25;;;;;;;6.51;55.47;102177.53;5042459;28;20492;-63
2023/04/05 09:39:48;;;;;;;15.82;9.40;;;;;;;6.63;52.36;102186.41;5039415;28;20048;-63
2023/04/05 09:42:15;;;;;;;19.60;10.07;;;;;;;6.58;51.05;102174.34;5039282;28;20052;-62
2023/04/05 09:45:04;;;;;;;16.67;9.82;;;;;;;6.66;52.80;102186.22;5041567;28;20087;-63
2023/04/05 09:47:33;;;;;;;16.55;9.18;;;;;;;6.66;49.33;102175.66;5037046;28;20040;-63
2023/04/05 09:50:14;;;;;;;16.77;8.82;;;;;;;6.70;50.35;102180.63;5036011;28;20063;-62
2023/04/05 09:52:39;;;;;;;14.73;8.82;;;;;;;6.79;49.74;102181.78;5039160;28;20040;-62
2023/04/05 09:55:06;;;;;;;14.30;8.85;;;;;;;6.81;49.07;102182.53;5039957;28;20311;-63
2023/04/05 09:57:36;;;;;;;16.08;9.48;;;;;;;6.84;47.02;102178.84;5039272;28;20033;-63
2023/04/05 10:00:04;;;;;;;21.23;10.02;;;;;;;6.79;46.62;102176.53;5041989;28;20573;-62
2023/04/05 10:02:39;;;;;;;15.90;9.20;;;;;;;6.82;48.17;102178.94;5047067;28;20025;-63
2023/04/05 10:05:06;;;;;;;21.70;9.77;;;;;;;6.98;49.90;102170.00;5041797;28;20507;-63
2023/04/05 10:07:32;;;;;;;17.60;9.25;;;;;;;7.10;48.94;102163.03;5042988;28;20037;-64
2023/04/05 10:09:57;;;;;;;15.90;9.70;;;;;;;7.12;46.47;102161.97;5047633;28;20546;-64
2023/04/05 10:12:28;;;;;;;14.60;8.60;;;;;;;7.15;48.24;102157.44;5041324;28;20029;-65
2023/04/05 10:14:54;;;;;;;16.90;9.40;;;;;;;7.22;46.03;102166.63;5045504;28;20036;-63
2023/04/05 10:17:30;;;;;;;18.10;9.57;;;;;;;7.12;45.57;102151.41;5046978;28;20113;-63
2023/04/05 10:20:22;;;;;;;18.55;9.65;;;;;;;7.24;48.91;102154.16;5034640;28;20037;-63
2023/04/05 10:22:58;;;;;;;17.42;9.75;;;;;;;7.28;47.58;102150.34;5041130;28;20072;-63
2023/04/05 10:25:43;;;;;;;18.27;10.00;;;;;;;7.31;45.75;102155.44;5046354;28;20090;-63
2023/04/05 10:28:08;;;;;;;17.48;9.88;;;;;;;7.33;43.82;102153.53;5036297;28;20033;-63
2023/04/05 10:30:38;;;;;;;16.90;9.90;;;;;;;7.40;45.45;102148.63;5041732;28;20489;-64
2023/04/05 10:33:32;;;;;;;14.45;9.68;;;;;;;7.47;46.40;102143.78;5045969;28;20037;-62
2023/04/05 10:36:05;;;;;;;18.85;9.65;;;;;;;7.52;45.19;102131.97;5044467;28;20613;-64
2023/04/05 10:38:34;;;;;;;;;;;;;;;7.72;45.48;102142.88;5045630;28;20029;-63
2023/04/05 10:41:09;;;;;;;15.52;9.23;;;;;;;7.67;43.68;102145.00;5044505;28;19961;-62
2023/04/05 10:43:36;;;;;;;16.38;9.05;;;;;;;7.71;41.61;102140.34;5046972;28;20079;-63
2023/04/05 10:46:03;;;;;;;16.10;9.35;;;;;;;7.80;42.55;102147.63;5044903;28;20053;-62
2023/04/05 10:48:47;;;;;;;17.63;9.40;;;;;;;7.87;43.55;102140.94;5045695;28;20037;-62
2023/04/05 10:51:14;;;;;;;15.10;8.95;;;;;;;7.93;40.43;102144.91;5045635;28;20057;-62
2023/04/05 10:53:40;;;;;;;14.13;8.48;;;;;;;7.89;38.47;102136.38;5042476;28;20118;-62
2023/04/05 10:56:05;;;;;;;12.65;7.75;;;;;;;8.00;40.17;102132.94;5040520;28;20057;-62
2023/04/05 10:58:33;;;;;;;15.50;9.05;;;;;;;8.06;39.42;102129.00;5045067;28;20047;-62
2023/04/05 11:00:59;;;;;;;15.63;8.70;;;;;;;8.15;40.07;102123.03;5044119;28;20063;-63
2023/04/05 11:03:43;;;;;;;16.02;8.60;;;;;;;8.18;41.51;102117.53;5044048;28;20964;-62
2023/04/05 11:06:18;;;;;;;17.55;8.82;;;;;;;8.20;40.54;102120.91;5045472;28;20093;-62
2023/04/05 11:08:45;;;;;;;15.18;9.55;;;;;;;8.29;41.88;102108.81;5044145;28;20029;-63
2023/04/05 11:11:17;;;;;;;14.07;9.13;;;;;;;8.36;40.91;102117.13;5039282;28;20808;-63
2023/04/05 11:13:55;;;;;;;16.13;9.07;;;;;;;8.41;39.84;102108.84;5044702;28;20033;-62
2023/04/05 11:16:23;;;;;;;17.48;9.05;;;;;;;8.46;40.76;102107.56;5045404;28;20090;-63
2023/04/05 11:18:50;;;;;;;13.25;8.80;;;;;;;8.59;41.59;102109.28;5043947;28;20036;-63
2023/04/05 11:21:21;;;;;;;16.98;9.02;;;;;;;8.55;39.28;102105.19;5046176;28;20032;-63